Spasskiy, Russia
Current Conditions -  °F | °C
As of 7:00 PM on Thursday 23 Oct 2014 (Local Time) from USCM Reporting Station
Broken Clouds Broken Clouds  
Wind Chill:   Ceiling: 3000
Heat Index: 19°   Visibility: 6mi
Dew Point:   Wind: 13mph
Humidity: 58%   Direction: 310°NW
Pressure: 29.71"   Gusts: NA
Location:  53.7°N, 59.2°E
Report Text: USCM 231300Z 31006MPS 9999 BKN030CB M07/M14 Q1006 NOSIG01090065 RMK QFE716
Loading
Personal Weather Stations






























Interactive Weather Map
Tropical Storm Tracking
New forecast layout! Learn more

10-Day Weather Forecast

Advertisements
Track Severe Weather on mobile